Terminal Aerodrome Forecast
Issued by NWS

Home | Current Version | Previous Version | Text Only | Print | Product List | Glossary On
Versions: 1 2 3 4 5 6 7 8 9 10 11 12 13 14 15
000
FTUS43 KFGF 190900 AAA
TAFBJI
TAF AMD
KBJI 190903Z 1909/2006 11006KT P6SM -RA BKN005
     FM191300 30009KT P6SM -RA OVC015
     FM191500 31015G23KT P6SM SHRA OVC025
     FM192000 31014G22KT P6SM OVC050=

USA.gov is the U.S. government's official web portal to all federal, state and local government web resources and services.